Aérodrome :
LOGIN :

S'inscrire | Disclaimer

   EN    FR    IT 

 










Légende :    VFR   VFR Marginal   IFR   IFR Intensif   IFR Très Intensif
Visi : 
Plafond : 
>= 8 km
>= 3000ft
5 à 8 km
1000 à 3000 ft
1500m à 5 km
500 à 1000 ft
800 à 1500m
200 à 500 ft
< 800m
< 200 ft
Symboles :   Orages  Brouillard  Fortes neiges  Fortes précipitations  Vent > 20 kt
SIGMETs :   Divers  Orages  Givrage  Turbulence  Onde Orograph.  Cendres Volcan.







- Altitude de l'aérodrome : 446 ft
- Code IATA : VNE
- Voir les cartes d'approche


LFRV - Vannes-Meucon

DERNIER METAR :
  • 200300Z AUTO 23007KT 200V270 9999 -RADZ BKN006 OVC010 18/18 Q1011

METARs EXPIRÉS :
  • 200230Z AUTO 22005KT 190V260 9999 OVC006 18/17 Q1011
  • 200200Z AUTO 21006KT 180V240 9999 OVC007 18/17 Q1011
  • 200130Z AUTO 21006KT 180V240 9999 OVC009 18/17 Q1011
  • 200100Z AUTO 21006KT 170V230 9999 BKN010 OVC015 18/17 Q1011
  • 200030Z AUTO 22006KT 180V240 9999 BKN012 BKN064 OVC076 18/17 Q1011

TAF N/A
Pas de NOTAMs connus pour ce terrain.
1 SIGMET publié pour la FIR Brest (LFRR) :
 
Orages noyés dans la masse
LFRR SIGMET 1 VALID 200100/200400 LFPW
LFRR BREST FIR/UIR EMBD TS OBS AT 0100Z WI N4600 W00145 - N4515 W00145 - N4500 W00230 - N4530 W00230 - N4600 W00145 TOP FL390 MOV E 20KT NC=



MET'MAP, la Météo Aéronautique d'un coup d'oeil ! - Copyright ORBIFLY Décembre 2007 - Disclaimer

ORBIFLY MET'MAP TEAM :

Programmation & Développement : Alexandra Zaïnal
Conception & Développement : Baudouin d'Aumeries
Co-Programmation & Développement : Marc-Olivier Méhu
Soutien technique & logistique : Manuel Goepfert

Contact : metmap@orbifly.com




SOURCES & CREDITS :

   NOAA